<?xml version="1.0" encoding="UTF-8" standalone="no" ?>
<gpx xmlns="http://www.topografix.com/GPX/1/1" xmlns:xsi="http://www.w3.org/2001/XMLSchema-instance" xsi:schemaLocation="http://www.topografix.com/GPX/1/1 http://www.topografix.com/GPX/1/1/gpx.xsd" version="1.1" creator="VisuGPX - https://www.visugpx.com">
  <metadata>
    <name>Move 28 mars 2016</name>
    <desc><![CDATA[Skibylletour]]></desc>
  </metadata>
  <trk>
    <name><![CDATA[Move]]></name>
    <trkseg>
      <trkpt lat="44.53" lon="6.8361">
        <ele>2620</ele>
        <time>2016-03-28T07:06:09.610Z</time>
      </trkpt>
      <trkpt lat="44.52993" lon="6.83669">
        <ele>2606.57299968</ele>
        <time>2016-03-28T07:07:52.670Z</time>
      </trkpt>
      <trkpt lat="44.52953" lon="6.83661">
        <ele>2604</ele>
        <time>2016-03-28T07:08:53.070Z</time>
      </trkpt>
      <trkpt lat="44.52918" lon="6.83692">
        <ele>2602</ele>
        <time>2016-03-28T07:09:53.480Z</time>
      </trkpt>
      <trkpt lat="44.52882" lon="6.83718">
        <ele>2602.552</ele>
        <time>2016-03-28T07:10:52.880Z</time>
      </trkpt>
      <trkpt lat="44.52829" lon="6.83752">
        <ele>2602</ele>
        <time>2016-03-28T07:11:53.290Z</time>
      </trkpt>
      <trkpt lat="44.5277" lon="6.8378">
        <ele>2601</ele>
        <time>2016-03-28T07:12:52.690Z</time>
      </trkpt>
      <trkpt lat="44.52729" lon="6.83848">
        <ele>2602</ele>
        <time>2016-03-28T07:13:53.100Z</time>
      </trkpt>
      <trkpt lat="44.52701" lon="6.83863">
        <ele>2604.5614381016</ele>
        <time>2016-03-28T07:14:53.610Z</time>
      </trkpt>
      <trkpt lat="44.52689" lon="6.83929">
        <ele>2619.50200064</ele>
        <time>2016-03-28T07:16:53.420Z</time>
      </trkpt>
      <trkpt lat="44.52661" lon="6.83977">
        <ele>2635.84600064</ele>
        <time>2016-03-28T07:19:52.630Z</time>
      </trkpt>
      <trkpt lat="44.52633" lon="6.8401">
        <ele>2644.464</ele>
        <time>2016-03-28T07:20:53.040Z</time>
      </trkpt>
      <trkpt lat="44.52637" lon="6.84051">
        <ele>2656</ele>
        <time>2016-03-28T07:22:52.860Z</time>
      </trkpt>
      <trkpt lat="44.52654" lon="6.84104">
        <ele>2680.84</ele>
        <time>2016-03-28T07:28:52.600Z</time>
      </trkpt>
      <trkpt lat="44.52628" lon="6.84123">
        <ele>2686.92199936</ele>
        <time>2016-03-28T07:29:53.010Z</time>
      </trkpt>
      <trkpt lat="44.52627" lon="6.84164">
        <ele>2698.4238675541</ele>
        <time>2016-03-28T07:31:52.820Z</time>
      </trkpt>
      <trkpt lat="44.52651" lon="6.84196">
        <ele>2711.450485157</ele>
        <time>2016-03-28T07:34:53.040Z</time>
      </trkpt>
      <trkpt lat="44.52669" lon="6.84241">
        <ele>2725</ele>
        <time>2016-03-28T07:37:53.260Z</time>
      </trkpt>
      <trkpt lat="44.5266" lon="6.8428">
        <ele>2737</ele>
        <time>2016-03-28T07:39:53.070Z</time>
      </trkpt>
      <trkpt lat="44.5265" lon="6.84323">
        <ele>2737</ele>
        <time>2016-03-28T07:40:53.480Z</time>
      </trkpt>
      <trkpt lat="44.52627" lon="6.84378">
        <ele>2755.3186377115</ele>
        <time>2016-03-28T07:47:00.010Z</time>
      </trkpt>
      <trkpt lat="44.52593" lon="6.84373">
        <ele>2756</ele>
        <time>2016-03-28T07:56:53.250Z</time>
      </trkpt>
      <trkpt lat="44.52542" lon="6.84356">
        <ele>2709.3353244457</ele>
        <time>2016-03-28T08:04:06.610Z</time>
      </trkpt>
      <trkpt lat="44.52494" lon="6.84332">
        <ele>2705</ele>
        <time>2016-03-28T08:04:52.910Z</time>
      </trkpt>
      <trkpt lat="44.52233" lon="6.84321">
        <ele>2629.576</ele>
        <time>2016-03-28T08:07:17.920Z</time>
      </trkpt>
      <trkpt lat="44.52062" lon="6.84347">
        <ele>2596.0350016</ele>
        <time>2016-03-28T08:07:54.330Z</time>
      </trkpt>
      <trkpt lat="44.51976" lon="6.84298">
        <ele>2591.5224780092</ele>
        <time>2016-03-28T08:08:53.630Z</time>
      </trkpt>
      <trkpt lat="44.51859" lon="6.84189">
        <ele>2548</ele>
        <time>2016-03-28T08:09:55.440Z</time>
      </trkpt>
      <trkpt lat="44.51553" lon="6.83845">
        <ele>2495</ele>
        <time>2016-03-28T08:12:50.640Z</time>
      </trkpt>
      <trkpt lat="44.51499" lon="6.83817">
        <ele>2475</ele>
        <time>2016-03-28T08:13:22.860Z</time>
      </trkpt>
      <trkpt lat="44.51455" lon="6.83771">
        <ele>2450</ele>
        <time>2016-03-28T08:14:23.160Z</time>
      </trkpt>
      <trkpt lat="44.51382" lon="6.83833">
        <ele>2446</ele>
        <time>2016-03-28T08:15:22.960Z</time>
      </trkpt>
      <trkpt lat="44.51075" lon="6.83896">
        <ele>2352.05400064</ele>
        <time>2016-03-28T08:17:23.670Z</time>
      </trkpt>
      <trkpt lat="44.51055" lon="6.83946">
        <ele>2350.46700032</ele>
        <time>2016-03-28T08:32:23.070Z</time>
      </trkpt>
      <trkpt lat="44.51002" lon="6.84034">
        <ele>2359.41799936</ele>
        <time>2016-03-28T08:34:22.580Z</time>
      </trkpt>
      <trkpt lat="44.5097" lon="6.84057">
        <ele>2363.44899968</ele>
        <time>2016-03-28T08:35:22.890Z</time>
      </trkpt>
      <trkpt lat="44.509" lon="6.84116">
        <ele>2368</ele>
        <time>2016-03-28T08:36:37.610Z</time>
      </trkpt>
      <trkpt lat="44.50862" lon="6.84186">
        <ele>2386.84199936</ele>
        <time>2016-03-28T08:39:22.610Z</time>
      </trkpt>
      <trkpt lat="44.50852" lon="6.84223">
        <ele>2393.44199936</ele>
        <time>2016-03-28T08:40:22.820Z</time>
      </trkpt>
      <trkpt lat="44.50825" lon="6.84248">
        <ele>2400</ele>
        <time>2016-03-28T08:41:23.030Z</time>
      </trkpt>
      <trkpt lat="44.50782" lon="6.84327">
        <ele>2409</ele>
        <time>2016-03-28T08:43:22.640Z</time>
      </trkpt>
      <trkpt lat="44.50743" lon="6.84371">
        <ele>2414.45400064</ele>
        <time>2016-03-28T08:44:22.940Z</time>
      </trkpt>
      <trkpt lat="44.50733" lon="6.8441">
        <ele>2419.48499968</ele>
        <time>2016-03-28T08:45:23.250Z</time>
      </trkpt>
      <trkpt lat="44.50714" lon="6.84456">
        <ele>2424.8311690969</ele>
        <time>2016-03-28T08:46:22.560Z</time>
      </trkpt>
      <trkpt lat="44.50697" lon="6.84492">
        <ele>2429.87399936</ele>
        <time>2016-03-28T08:47:22.770Z</time>
      </trkpt>
      <trkpt lat="44.50689" lon="6.8453">
        <ele>2432.46300032</ele>
        <time>2016-03-28T08:48:23.770Z</time>
      </trkpt>
      <trkpt lat="44.50655" lon="6.84549">
        <ele>2438.13799936</ele>
        <time>2016-03-28T08:52:24.090Z</time>
      </trkpt>
      <trkpt lat="44.50621" lon="6.84577">
        <ele>2450</ele>
        <time>2016-03-28T08:54:23.300Z</time>
      </trkpt>
      <trkpt lat="44.50597" lon="6.84635">
        <ele>2456</ele>
        <time>2016-03-28T08:55:22.670Z</time>
      </trkpt>
      <trkpt lat="44.50575" lon="6.84675">
        <ele>2462.45699968</ele>
        <time>2016-03-28T08:56:22.970Z</time>
      </trkpt>
      <trkpt lat="44.50562" lon="6.84719">
        <ele>2467.4639920988</ele>
        <time>2016-03-28T08:57:23.190Z</time>
      </trkpt>
      <trkpt lat="44.50541" lon="6.84757">
        <ele>2474</ele>
        <time>2016-03-28T08:58:22.490Z</time>
      </trkpt>
      <trkpt lat="44.50496" lon="6.84797">
        <ele>2489</ele>
        <time>2016-03-28T09:00:23.010Z</time>
      </trkpt>
      <trkpt lat="44.50453" lon="6.84831">
        <ele>2501</ele>
        <time>2016-03-28T09:02:22.530Z</time>
      </trkpt>
      <trkpt lat="44.50446" lon="6.84878">
        <ele>2515.36500096</ele>
        <time>2016-03-28T09:04:22.950Z</time>
      </trkpt>
      <trkpt lat="44.50426" lon="6.84934">
        <ele>2529</ele>
        <time>2016-03-28T09:06:22.390Z</time>
      </trkpt>
      <trkpt lat="44.50409" lon="6.84971">
        <ele>2532.86000128</ele>
        <time>2016-03-28T09:07:22.700Z</time>
      </trkpt>
      <trkpt lat="44.50378" lon="6.84963">
        <ele>2536.53900032</ele>
        <time>2016-03-28T09:08:23.010Z</time>
      </trkpt>
      <trkpt lat="44.50349" lon="6.85013">
        <ele>2536.48199936</ele>
        <time>2016-03-28T09:09:23.220Z</time>
      </trkpt>
      <trkpt lat="44.50304" lon="6.8499">
        <ele>2534.39500032</ele>
        <time>2016-03-28T09:14:32.350Z</time>
      </trkpt>
      <trkpt lat="44.50234" lon="6.84974">
        <ele>2523.5689297119</ele>
        <time>2016-03-28T09:16:22.870Z</time>
      </trkpt>
      <trkpt lat="44.50187" lon="6.84923">
        <ele>2518.52300032</ele>
        <time>2016-03-28T09:17:23.170Z</time>
      </trkpt>
      <trkpt lat="44.50148" lon="6.84858">
        <ele>2515.59299968</ele>
        <time>2016-03-28T09:18:22.470Z</time>
      </trkpt>
      <trkpt lat="44.50111" lon="6.84815">
        <ele>2514</ele>
        <time>2016-03-28T09:19:22.690Z</time>
      </trkpt>
      <trkpt lat="44.50085" lon="6.84746">
        <ele>2515</ele>
        <time>2016-03-28T09:20:22.900Z</time>
      </trkpt>
      <trkpt lat="44.50028" lon="6.84706">
        <ele>2515</ele>
        <time>2016-03-28T09:21:23.210Z</time>
      </trkpt>
      <trkpt lat="44.49978" lon="6.84795">
        <ele>2514</ele>
        <time>2016-03-28T09:23:22.720Z</time>
      </trkpt>
      <trkpt lat="44.49961" lon="6.84825">
        <ele>2520.9050945551</ele>
        <time>2016-03-28T09:24:22.930Z</time>
      </trkpt>
      <trkpt lat="44.49923" lon="6.84815">
        <ele>2519</ele>
        <time>2016-03-28T09:25:23.140Z</time>
      </trkpt>
      <trkpt lat="44.49851" lon="6.84798">
        <ele>2480.57400064</ele>
        <time>2016-03-28T09:27:24.140Z</time>
      </trkpt>
      <trkpt lat="44.49815" lon="6.84844">
        <ele>2480.416</ele>
        <time>2016-03-28T09:29:22.560Z</time>
      </trkpt>
      <trkpt lat="44.49794" lon="6.84873">
        <ele>2476</ele>
        <time>2016-03-28T09:30:22.770Z</time>
      </trkpt>
      <trkpt lat="44.49721" lon="6.8492">
        <ele>2457.5343966391</ele>
        <time>2016-03-28T09:31:23.070Z</time>
      </trkpt>
      <trkpt lat="44.49627" lon="6.84974">
        <ele>2454</ele>
        <time>2016-03-28T09:32:27.870Z</time>
      </trkpt>
      <trkpt lat="44.49594" lon="6.84969">
        <ele>2455</ele>
        <time>2016-03-28T09:33:23.980Z</time>
      </trkpt>
      <trkpt lat="44.49569" lon="6.84993">
        <ele>2448.253350277</ele>
        <time>2016-03-28T09:35:22.500Z</time>
      </trkpt>
      <trkpt lat="44.49543" lon="6.85024">
        <ele>2443</ele>
        <time>2016-03-28T09:36:22.700Z</time>
      </trkpt>
      <trkpt lat="44.49527" lon="6.85059">
        <ele>2443</ele>
        <time>2016-03-28T09:37:22.920Z</time>
      </trkpt>
      <trkpt lat="44.49502" lon="6.8509">
        <ele>2441</ele>
        <time>2016-03-28T09:38:23.220Z</time>
      </trkpt>
      <trkpt lat="44.49484" lon="6.85143">
        <ele>2442.40199936</ele>
        <time>2016-03-28T09:39:22.420Z</time>
      </trkpt>
      <trkpt lat="44.49457" lon="6.85179">
        <ele>2443</ele>
        <time>2016-03-28T09:40:22.640Z</time>
      </trkpt>
      <trkpt lat="44.49454" lon="6.8526">
        <ele>2444</ele>
        <time>2016-03-28T09:41:22.850Z</time>
      </trkpt>
      <trkpt lat="44.49444" lon="6.85302">
        <ele>2442.46599936</ele>
        <time>2016-03-28T09:42:23.060Z</time>
      </trkpt>
      <trkpt lat="44.49416" lon="6.85367">
        <ele>2441.45400064</ele>
        <time>2016-03-28T09:43:23.860Z</time>
      </trkpt>
      <trkpt lat="44.49403" lon="6.85401">
        <ele>2443</ele>
        <time>2016-03-28T09:44:23.070Z</time>
      </trkpt>
      <trkpt lat="44.49062" lon="6.85552">
        <ele>2445.51800064</ele>
        <time>2016-03-28T09:47:23.220Z</time>
      </trkpt>
      <trkpt lat="44.49031" lon="6.85612">
        <ele>2442</ele>
        <time>2016-03-28T09:48:22.530Z</time>
      </trkpt>
      <trkpt lat="44.49014" lon="6.85647">
        <ele>2445.30199808</ele>
        <time>2016-03-28T09:49:22.740Z</time>
      </trkpt>
      <trkpt lat="44.49007" lon="6.85683">
        <ele>2451</ele>
        <time>2016-03-28T09:50:23.040Z</time>
      </trkpt>
      <trkpt lat="44.48958" lon="6.85722">
        <ele>2455</ele>
        <time>2016-03-28T09:51:23.340Z</time>
      </trkpt>
      <trkpt lat="44.48927" lon="6.85743">
        <ele>2461.4696187948</ele>
        <time>2016-03-28T09:54:23.250Z</time>
      </trkpt>
      <trkpt lat="44.48888" lon="6.85791">
        <ele>2469</ele>
        <time>2016-03-28T09:55:30.060Z</time>
      </trkpt>
      <trkpt lat="44.48856" lon="6.85792">
        <ele>2473.48700032</ele>
        <time>2016-03-28T09:56:23.270Z</time>
      </trkpt>
      <trkpt lat="44.48834" lon="6.85821">
        <ele>2492</ele>
        <time>2016-03-28T09:59:23.090Z</time>
      </trkpt>
      <trkpt lat="44.48797" lon="6.85839">
        <ele>2498</ele>
        <time>2016-03-28T10:00:23.300Z</time>
      </trkpt>
      <trkpt lat="44.48817" lon="6.85869">
        <ele>2503.4204202857</ele>
        <time>2016-03-28T10:01:22.610Z</time>
      </trkpt>
      <trkpt lat="44.48808" lon="6.85921">
        <ele>2516.38600192</ele>
        <time>2016-03-28T10:03:23.020Z</time>
      </trkpt>
      <trkpt lat="44.48773" lon="6.85972">
        <ele>2528.8083831111</ele>
        <time>2016-03-28T10:05:22.450Z</time>
      </trkpt>
      <trkpt lat="44.48739" lon="6.86026">
        <ele>2534.896</ele>
        <time>2016-03-28T10:07:22.880Z</time>
      </trkpt>
      <trkpt lat="44.48731" lon="6.86068">
        <ele>2538.46899968</ele>
        <time>2016-03-28T10:08:23.090Z</time>
      </trkpt>
      <trkpt lat="44.48708" lon="6.8612">
        <ele>2548</ele>
        <time>2016-03-28T10:10:22.700Z</time>
      </trkpt>
      <trkpt lat="44.48684" lon="6.86102">
        <ele>2559</ele>
        <time>2016-03-28T10:12:23.140Z</time>
      </trkpt>
      <trkpt lat="44.48671" lon="6.86168">
        <ele>2566.8311690969</ele>
        <time>2016-03-28T10:14:22.560Z</time>
      </trkpt>
      <trkpt lat="44.48642" lon="6.86165">
        <ele>2574</ele>
        <time>2016-03-28T10:15:22.870Z</time>
      </trkpt>
      <trkpt lat="44.48621" lon="6.86206">
        <ele>2596.47000064</ele>
        <time>2016-03-28T10:19:23.100Z</time>
      </trkpt>
      <trkpt lat="44.48596" lon="6.86239">
        <ele>2601</ele>
        <time>2016-03-28T10:20:23.310Z</time>
      </trkpt>
      <trkpt lat="44.48558" lon="6.86272">
        <ele>2615.86799872</ele>
        <time>2016-03-28T10:22:22.740Z</time>
      </trkpt>
      <trkpt lat="44.48536" lon="6.86318">
        <ele>2629</ele>
        <time>2016-03-28T10:24:23.250Z</time>
      </trkpt>
      <trkpt lat="44.48508" lon="6.86325">
        <ele>2640.428</ele>
        <time>2016-03-28T10:26:22.680Z</time>
      </trkpt>
      <trkpt lat="44.48485" lon="6.86377">
        <ele>2655.47900032</ele>
        <time>2016-03-28T10:28:23.190Z</time>
      </trkpt>
      <trkpt lat="44.48449" lon="6.86397">
        <ele>2667.42200064</ele>
        <time>2016-03-28T10:30:22.620Z</time>
      </trkpt>
      <trkpt lat="44.4842" lon="6.86429">
        <ele>2693.52499968</ele>
        <time>2016-03-28T10:34:23.150Z</time>
      </trkpt>
      <trkpt lat="44.48383" lon="6.86507">
        <ele>2646.5235236762</ele>
        <time>2016-03-28T10:48:23.170Z</time>
      </trkpt>
      <trkpt lat="44.48313" lon="6.86567">
        <ele>2627.384</ele>
        <time>2016-03-28T10:49:22.440Z</time>
      </trkpt>
      <trkpt lat="44.48214" lon="6.866">
        <ele>2553.228</ele>
        <time>2016-03-28T10:50:22.840Z</time>
      </trkpt>
      <trkpt lat="44.47861" lon="6.86628">
        <ele>2514.99499904</ele>
        <time>2016-03-28T10:51:31.750Z</time>
      </trkpt>
      <trkpt lat="44.47812" lon="6.86636">
        <ele>2509.1249984</ele>
        <time>2016-03-28T10:52:26.150Z</time>
      </trkpt>
      <trkpt lat="44.47532" lon="6.86721">
        <ele>2447</ele>
        <time>2016-03-28T10:53:31.050Z</time>
      </trkpt>
      <trkpt lat="44.4748" lon="6.86709">
        <ele>2445</ele>
        <time>2016-03-28T10:54:25.950Z</time>
      </trkpt>
      <trkpt lat="44.47456" lon="6.86737">
        <ele>2445</ele>
        <time>2016-03-28T11:13:22.520Z</time>
      </trkpt>
      <trkpt lat="44.47471" lon="6.86706">
        <ele>2448.45299968</ele>
        <time>2016-03-28T11:14:22.930Z</time>
      </trkpt>
      <trkpt lat="44.47279" lon="6.86743">
        <ele>2400.312</ele>
        <time>2016-03-28T11:22:25.280Z</time>
      </trkpt>
      <trkpt lat="44.46991" lon="6.86835">
        <ele>2343.8522902051</ele>
        <time>2016-03-28T11:23:24.680Z</time>
      </trkpt>
      <trkpt lat="44.46751" lon="6.86973">
        <ele>2317.59300096</ele>
        <time>2016-03-28T11:24:23.090Z</time>
      </trkpt>
      <trkpt lat="44.46652" lon="6.87029">
        <ele>2311.39100032</ele>
        <time>2016-03-28T11:25:24.490Z</time>
      </trkpt>
      <trkpt lat="44.46567" lon="6.87098">
        <ele>2266.9100905207</ele>
        <time>2016-03-28T11:26:27.510Z</time>
      </trkpt>
      <trkpt lat="44.46543" lon="6.87116">
        <ele>2267.652</ele>
        <time>2016-03-28T11:27:24.920Z</time>
      </trkpt>
      <trkpt lat="44.46476" lon="6.87153">
        <ele>2267.50700032</ele>
        <time>2016-03-28T11:28:23.330Z</time>
      </trkpt>
      <trkpt lat="44.46478" lon="6.87061">
        <ele>2263.47500032</ele>
        <time>2016-03-28T11:30:23.150Z</time>
      </trkpt>
      <trkpt lat="44.46465" lon="6.87008">
        <ele>2267.4446592965</ele>
        <time>2016-03-28T11:32:22.980Z</time>
      </trkpt>
      <trkpt lat="44.46478" lon="6.86929">
        <ele>2235.15200256</ele>
        <time>2016-03-28T11:35:23.210Z</time>
      </trkpt>
      <trkpt lat="44.46522" lon="6.86883">
        <ele>2230.57900032</ele>
        <time>2016-03-28T11:36:22.610Z</time>
      </trkpt>
      <trkpt lat="44.46566" lon="6.86747">
        <ele>2195.07599872</ele>
        <time>2016-03-28T11:37:23.020Z</time>
      </trkpt>
      <trkpt lat="44.46542" lon="6.86635">
        <ele>2145.99399936</ele>
        <time>2016-03-28T11:38:23.430Z</time>
      </trkpt>
      <trkpt lat="44.465" lon="6.86522">
        <ele>2137</ele>
        <time>2016-03-28T11:39:22.830Z</time>
      </trkpt>
      <trkpt lat="44.46493" lon="6.86453">
        <ele>2122.516</ele>
        <time>2016-03-28T11:40:23.240Z</time>
      </trkpt>
      <trkpt lat="44.46471" lon="6.8627">
        <ele>2116</ele>
        <time>2016-03-28T11:41:23.150Z</time>
      </trkpt>
      <trkpt lat="44.46415" lon="6.86201">
        <ele>2094.168</ele>
        <time>2016-03-28T11:42:22.560Z</time>
      </trkpt>
      <trkpt lat="44.46396" lon="6.86172">
        <ele>2093</ele>
        <time>2016-03-28T11:43:22.970Z</time>
      </trkpt>
      <trkpt lat="44.46393" lon="6.86118">
        <ele>2086.01200384</ele>
        <time>2016-03-28T11:44:23.380Z</time>
      </trkpt>
      <trkpt lat="44.46386" lon="6.85979">
        <ele>2067.93399552</ele>
        <time>2016-03-28T11:45:22.780Z</time>
      </trkpt>
      <trkpt lat="44.46403" lon="6.85884">
        <ele>2038.52099968</ele>
        <time>2016-03-28T11:46:23.190Z</time>
      </trkpt>
      <trkpt lat="44.46289" lon="6.85543">
        <ele>1989.08399872</ele>
        <time>2016-03-28T11:48:33.190Z</time>
      </trkpt>
      <trkpt lat="44.46266" lon="6.85483">
        <ele>1981.39600128</ele>
        <time>2016-03-28T11:49:22.410Z</time>
      </trkpt>
      <trkpt lat="44.46248" lon="6.8544">
        <ele>1979.42300032</ele>
        <time>2016-03-28T11:50:22.630Z</time>
      </trkpt>
      <trkpt lat="44.4622" lon="6.85414">
        <ele>1971.46699904</ele>
        <time>2016-03-28T11:52:23.510Z</time>
      </trkpt>
      <trkpt lat="44.46192" lon="6.85343">
        <ele>1963.548</ele>
        <time>2016-03-28T11:53:22.920Z</time>
      </trkpt>
      <trkpt lat="44.46148" lon="6.8529">
        <ele>1959</ele>
        <time>2016-03-28T11:54:23.420Z</time>
      </trkpt>
      <trkpt lat="44.46099" lon="6.85217">
        <ele>1947.516</ele>
        <time>2016-03-28T11:56:23.240Z</time>
      </trkpt>
      <trkpt lat="44.4605" lon="6.85191">
        <ele>1935.728</ele>
        <time>2016-03-28T11:57:22.640Z</time>
      </trkpt>
      <trkpt lat="44.45997" lon="6.85156">
        <ele>1932</ele>
        <time>2016-03-28T11:58:23.050Z</time>
      </trkpt>
      <trkpt lat="44.45961" lon="6.85126">
        <ele>1926.49299968</ele>
        <time>2016-03-28T11:59:23.470Z</time>
      </trkpt>
      <trkpt lat="44.4591" lon="6.85106">
        <ele>1916.02599936</ele>
        <time>2016-03-28T12:00:23.270Z</time>
      </trkpt>
      <trkpt lat="44.45858" lon="6.85094">
        <ele>1907.56999936</ele>
        <time>2016-03-28T12:02:22.700Z</time>
      </trkpt>
      <trkpt lat="44.45826" lon="6.85063">
        <ele>1904.54899968</ele>
        <time>2016-03-28T12:03:22.910Z</time>
      </trkpt>
      <trkpt lat="44.45797" lon="6.85021">
        <ele>1902.52700032</ele>
        <time>2016-03-28T12:04:23.130Z</time>
      </trkpt>
      <trkpt lat="44.45756" lon="6.85002">
        <ele>1882.51000064</ele>
        <time>2016-03-28T12:13:23.300Z</time>
      </trkpt>
      <trkpt lat="44.45729" lon="6.85025">
        <ele>1870.5792617095</ele>
        <time>2016-03-28T12:14:22.620Z</time>
      </trkpt>
      <trkpt lat="44.45702" lon="6.8504">
        <ele>1858.54700032</ele>
        <time>2016-03-28T12:15:22.930Z</time>
      </trkpt>
      <trkpt lat="44.45675" lon="6.84993">
        <ele>1832.72500096</ele>
        <time>2016-03-28T12:17:22.650Z</time>
      </trkpt>
      <trkpt lat="44.45642" lon="6.84984">
        <ele>1820.088</ele>
        <time>2016-03-28T12:18:22.960Z</time>
      </trkpt>
      <trkpt lat="44.45575" lon="6.84942">
        <ele>1796.16199936</ele>
        <time>2016-03-28T12:20:22.590Z</time>
      </trkpt>
      <trkpt lat="44.45541" lon="6.84944">
        <ele>1783.12</ele>
        <time>2016-03-28T12:21:22.800Z</time>
      </trkpt>
      <trkpt lat="44.45514" lon="6.84923">
        <ele>1773.0590580792</ele>
        <time>2016-03-28T12:22:23.110Z</time>
      </trkpt>
      <trkpt lat="44.45448" lon="6.84938">
        <ele>1748.1898108898</ele>
        <time>2016-03-28T12:24:22.930Z</time>
      </trkpt>
      <trkpt lat="44.45424" lon="6.84914">
        <ele>1736.5064927094</ele>
        <time>2016-03-28T12:25:23.340Z</time>
      </trkpt>
      <trkpt lat="44.45397" lon="6.8492">
        <ele>1724.1646103704</ele>
        <time>2016-03-28T12:26:22.740Z</time>
      </trkpt>
      <trkpt lat="44.45357" lon="6.84907">
        <ele>1713.048</ele>
        <time>2016-03-28T12:27:23.160Z</time>
      </trkpt>
      <trkpt lat="44.45324" lon="6.84889">
        <ele>1702.16600064</ele>
        <time>2016-03-28T12:28:22.570Z</time>
      </trkpt>
      <trkpt lat="44.45273" lon="6.84885">
        <ele>1694.50099968</ele>
        <time>2016-03-28T12:30:23.390Z</time>
      </trkpt>
      <trkpt lat="44.45233" lon="6.84825">
        <ele>1687.56</ele>
        <time>2016-03-28T12:31:22.800Z</time>
      </trkpt>
      <trkpt lat="44.45179" lon="6.84774">
        <ele>1681.51900032</ele>
        <time>2016-03-28T12:32:23.210Z</time>
      </trkpt>
      <trkpt lat="44.4514" lon="6.84705">
        <ele>1677.5698596853</ele>
        <time>2016-03-28T12:33:22.710Z</time>
      </trkpt>
      <trkpt lat="44.45091" lon="6.84699">
        <ele>1676</ele>
        <time>2016-03-28T12:34:23.120Z</time>
      </trkpt>
      <trkpt lat="44.45048" lon="6.84698">
        <ele>1674.176</ele>
        <time>2016-03-28T12:35:22.520Z</time>
      </trkpt>
      <trkpt lat="44.45015" lon="6.84708">
        <ele>1672.7735849968</ele>
        <time>2016-03-28T12:37:24.550Z</time>
      </trkpt>
    </trkseg>
  </trk>
</gpx>